Time;durP1;ratioP1;P1;durP2;ratioP2;P2;SDS_P1;SDS_P2;PMS_P1;PMS_P2;Temp;Humidity;BMP_temperature;BMP_pressure;BME280_temperature;BME280_humidity;BME280_pressure;Samples;Min_cycle;Max_cycle;Signal;HPM_P1;HPM_P2
2022/10/11 00:02:23;;;;;;;7.60;2.33;;;7.40;99.90;;;;;;5035938;28;20239;-81
2022/10/11 00:04:50;;;;;;;11.67;2.87;;;7.40;99.90;;;;;;5028636;28;20229;-81
2022/10/11 00:07:17;;;;;;;11.77;2.50;;;7.40;99.90;;;;;;5025859;28;20217;-81
2022/10/11 00:09:44;;;;;;;8.77;2.43;;;7.40;99.90;;;;;;5025306;28;20225;-81
2022/10/11 00:12:11;;;;;;;14.80;3.00;;;7.40;99.90;;;;;;5013795;28;20229;-81
2022/10/11 00:14:38;;;;;;;12.80;2.80;;;7.30;99.90;;;;;;5028952;28;20237;-81
2022/10/11 00:17:07;;;;;;;8.77;2.27;;;7.30;99.90;;;;;;5022786;28;20213;-81
2022/10/11 00:19:34;;;;;;;8.67;2.23;;;7.30;99.90;;;;;;5026868;28;20229;-81
2022/10/11 00:22:01;;;;;;;10.37;2.30;;;7.20;99.90;;;;;;5025199;28;20224;-81
2022/10/11 00:24:27;;;;;;;11.93;2.63;;;7.20;99.90;;;;;;5027195;28;20236;-81
2022/10/11 00:26:54;;;;;;;18.53;2.67;;;7.20;99.90;;;;;;5025578;28;20736;-81
2022/10/11 00:29:24;;;;;;;9.23;2.37;;;7.20;99.90;;;;;;5024635;28;20221;-81
2022/10/11 00:31:54;;;;;;;9.03;2.57;;;7.20;99.90;;;;;;5023108;28;20228;-81
2022/10/11 00:34:22;;;;;;;10.20;3.03;;;7.10;99.90;;;;;;5023927;28;20298;-81
2022/10/11 00:36:49;;;;;;;12.63;3.43;;;7.10;99.90;;;;;;5026100;28;20227;-81
2022/10/11 00:39:15;;;;;;;11.57;2.80;;;7.10;99.90;;;;;;5035773;28;20234;-81
2022/10/11 00:41:42;;;;;;;10.17;2.30;;;7.10;99.90;;;;;;5031697;28;20295;-81
2022/10/11 00:44:15;;;;;;;11.40;2.67;;;7.10;99.90;;;;;;5023595;28;20311;-81
2022/10/11 00:46:45;;;;;;;12.23;2.50;;;7.00;99.90;;;;;;5019148;28;20235;-81
2022/10/11 00:49:21;;;;;;;7.93;2.30;;;7.00;99.90;;;;;;5026542;28;20318;-81
2022/10/11 00:51:52;;;;;;;11.40;2.57;;;7.00;99.90;;;;;;5021519;28;20891;-81
2022/10/11 00:54:24;;;;;;;8.70;2.30;;;6.90;99.90;;;;;;5028601;28;20230;-81
2022/10/11 00:56:54;;;;;;;6.13;2.47;;;6.90;99.90;;;;;;5021583;28;20222;-81
2022/10/11 00:59:24;;;;;;;10.90;2.70;;;6.90;99.90;;;;;;5012166;28;20808;-81
2022/10/11 01:01:51;;;;;;;14.67;2.30;;;6.80;99.90;;;;;;5043500;28;20315;-81
2022/10/11 01:04:18;;;;;;;9.17;2.20;;;6.80;99.90;;;;;;5024380;28;20593;-81
2022/10/11 01:06:47;;;;;;;11.27;2.53;;;6.80;99.90;;;;;;5020231;28;20235;-81
2022/10/11 01:09:18;;;;;;;14.90;2.70;;;6.80;99.90;;;;;;5018027;28;20240;-81
2022/10/11 01:11:47;;;;;;;12.57;2.27;;;6.80;99.90;;;;;;5021981;28;20229;-82
2022/10/11 01:14:42;;;;;;;12.43;2.80;;;6.80;99.90;;;;;;5022992;28;20757;-81
2022/10/11 01:17:18;;;;;;;12.50;3.10;;;6.80;99.90;;;;;;5017080;28;20229;-81
2022/10/11 01:20:15;;;;;;;7.30;2.27;;;6.80;99.90;;;;;;5024033;28;20221;-81
2022/10/11 01:23:03;;;;;;;12.87;2.67;;;6.90;99.90;;;;;;5010287;28;20232;-82
2022/10/11 01:25:40;;;;;;;12.90;2.77;;;7.00;99.90;;;;;;5030196;28;20252;-82
2022/10/11 01:28:34;;;;;;;11.83;3.00;;;7.00;99.90;;;;;;5020239;28;20221;-81
2022/10/11 01:31:13;;;;;;;12.63;2.20;;;7.10;99.90;;;;;;5019760;28;20223;-82
2022/10/11 01:33:45;;;;;;;5.30;2.00;;;7.10;99.90;;;;;;5020578;28;20298;-81
2022/10/11 01:36:14;;;;;;;9.20;1.90;;;7.20;99.90;;;;;;5022860;28;20226;-81
2022/10/11 01:38:47;;;;;;;13.67;2.10;;;7.30;99.90;;;;;;5024196;28;20223;-82
2022/10/11 01:41:18;;;;;;;14.57;2.53;;;7.30;99.90;;;;;;5025952;28;20225;-82
2022/10/11 01:43:46;;;;;;;10.47;3.23;;;7.30;99.90;;;;;;5026427;28;20225;-81
2022/10/11 01:46:15;;;;;;;11.00;2.33;;;7.30;99.90;;;;;;5025828;28;20679;-83
2022/10/11 01:48:50;;;;;;;13.13;2.40;;;7.30;99.90;;;;;;5030082;28;20233;-81
2022/10/11 01:51:22;;;;;;;8.27;2.20;;;7.30;99.90;;;;;;5025570;28;20340;-81
2022/10/11 01:54:02;;;;;;;9.97;2.50;;;7.20;99.90;;;;;;5003699;28;20267;-82
2022/10/11 01:57:07;;;;;;;13.83;2.50;;;7.20;99.90;;;;;;5004772;28;20232;-82
2022/10/11 01:59:46;;;;;;;10.57;2.33;;;7.10;99.90;;;;;;5006145;28;20248;-83
2022/10/11 02:02:28;;;;;;;15.47;3.30;;;7.00;99.90;;;;;;5003893;28;20224;-82
2022/10/11 02:05:02;;;;;;;7.43;2.23;;;7.00;99.90;;;;;;5004849;28;20241;-82
2022/10/11 02:07:36;;;;;;;15.43;3.03;;;7.00;99.90;;;;;;5011794;28;20244;-81
2022/10/11 02:10:10;;;;;;;9.50;2.97;;;6.90;99.90;;;;;;5019378;28;20229;-82
2022/10/11 02:12:44;;;;;;;13.40;2.60;;;6.80;99.90;;;;;;5013079;28;20663;-82
2022/10/11 02:15:13;;;;;;;7.67;2.83;;;6.80;99.90;;;;;;5022694;28;20235;-83
2022/10/11 02:17:45;;;;;;;11.37;2.50;;;6.80;99.90;;;;;;5024187;28;20754;-82
2022/10/11 02:20:16;;;;;;;11.43;2.80;;;6.70;99.90;;;;;;5035222;28;20313;-82
2022/10/11 02:22:46;;;;;;;10.03;2.17;;;6.70;99.90;;;;;;5045165;28;20239;-81
2022/10/11 02:25:17;;;;;;;8.70;2.00;;;6.70;99.90;;;;;;5023108;28;20228;-82
2022/10/11 02:27:46;;;;;;;11.87;2.73;;;6.60;99.90;;;;;;5034791;28;20227;-80
2022/10/11 02:30:14;;;;;;;11.87;2.87;;;6.60;99.90;;;;;;5023272;28;20225;-80
2022/10/11 02:32:46;;;;;;;11.70;2.57;;;6.50;99.90;;;;;;5030347;28;20255;-80
2022/10/11 02:35:13;;;;;;;11.13;2.53;;;6.50;99.90;;;;;;5019514;28;20284;-81
2022/10/11 02:37:47;;;;;;;10.57;2.70;;;6.40;99.90;;;;;;5019962;28;20842;-81
2022/10/11 02:40:19;;;;;;;9.67;2.27;;;6.40;99.90;;;;;;5026337;28;20222;-82
2022/10/11 02:42:52;;;;;;;8.07;2.47;;;6.40;99.90;;;;;;5025767;28;20686;-82
2022/10/11 02:45:25;;;;;;;10.13;2.80;;;6.30;99.90;;;;;;5034656;28;20232;-82
2022/10/11 02:47:53;;;;;;;11.57;2.77;;;6.30;99.90;;;;;;5025556;28;20827;-82
2022/10/11 02:50:22;;;;;;;8.23;2.00;;;6.30;99.90;;;;;;5025903;28;20323;-83
2022/10/11 02:52:49;;;;;;;10.50;2.30;;;6.30;99.90;;;;;;5028173;28;20241;-82
2022/10/11 02:55:15;;;;;;;4.10;1.77;;;6.30;99.90;;;;;;5053899;28;20315;-82
2022/10/11 02:57:42;;;;;;;9.13;2.37;;;6.20;99.90;;;;;;5037532;28;20236;-82
2022/10/11 03:00:10;;;;;;;6.53;2.40;;;6.20;99.90;;;;;;5031216;28;20241;-82
2022/10/11 03:02:37;;;;;;;8.17;2.50;;;6.10;99.90;;;;;;5031108;28;20323;-81
2022/10/11 03:05:05;;;;;;;5.60;2.30;;;6.10;99.90;;;;;;5018068;28;20232;-81
2022/10/11 03:07:32;;;;;;;8.43;2.73;;;6.10;99.90;;;;;;5020095;28;20694;-81
2022/10/11 03:10:01;;;;;;;8.83;2.60;;;6.00;99.90;;;;;;5021702;28;20309;-82
2022/10/11 03:12:30;;;;;;;11.23;3.33;;;6.00;99.90;;;;;;5022733;28;20224;-81
2022/10/11 03:14:57;;;;;;;17.27;4.07;;;5.90;99.90;;;;;;5019504;28;20233;-82
2022/10/11 03:17:25;;;;;;;11.97;3.10;;;5.90;99.90;;;;;;5020022;28;22059;-81
2022/10/11 03:19:51;;;;;;;13.70;3.70;;;5.80;99.90;;;;;;5027290;28;20228;-82
2022/10/11 03:22:19;;;;;;;14.97;4.10;;;5.80;99.90;;;;;;5019001;28;20226;-82
2022/10/11 03:24:46;;;;;;;11.40;3.03;;;5.80;99.90;;;;;;5027417;28;20221;-82
2022/10/11 03:27:13;;;;;;;12.93;3.07;;;5.80;99.90;;;;;;5025877;28;20227;-81
2022/10/11 03:29:39;;;;;;;9.73;3.47;;;5.80;99.90;;;;;;5028838;28;20241;-82
2022/10/11 03:32:06;;;;;;;11.00;2.90;;;5.80;99.90;;;;;;5021316;28;20229;-82
2022/10/11 03:34:33;;;;;;;13.87;3.07;;;5.70;99.90;;;;;;5023954;28;20246;-82
2022/10/11 03:36:59;;;;;;;11.57;2.93;;;5.70;99.90;;;;;;5023960;28;20308;-80
2022/10/11 03:39:27;;;;;;;9.73;3.40;;;5.70;99.90;;;;;;5026212;28;20233;-81
2022/10/11 03:41:54;;;;;;;7.57;2.83;;;5.70;99.90;;;;;;5031401;28;20233;-80
2022/10/11 03:44:21;;;;;;;8.63;2.80;;;5.70;99.90;;;;;;5026095;28;20228;-84
2022/10/11 03:46:47;;;;;;;8.73;3.20;;;5.70;99.90;;;;;;5028804;28;20295;-83
2022/10/11 03:49:14;;;;;;;11.67;3.43;;;5.70;99.90;;;;;;5015971;28;20225;-85
2022/10/11 03:51:41;;;;;;;10.50;3.20;;;5.70;99.90;;;;;;5025062;28;20437;-85
2022/10/11 03:54:07;;;;;;;18.50;3.83;;;5.80;99.90;;;;;;5019409;28;20217;-85
2022/10/11 03:56:35;;;;;;;13.80;3.80;;;5.80;99.90;;;;;;5022515;28;20260;-83
2022/10/11 03:59:02;;;;;;;12.40;3.73;;;5.90;99.90;;;;;;5008283;28;20215;-84
2022/10/11 04:01:29;;;;;;;15.27;3.77;;;6.00;99.90;;;;;;5003817;28;20244;-83
2022/10/11 04:03:56;;;;;;;13.77;3.53;;;6.10;99.90;;;;;;5021294;28;20319;-83
2022/10/11 04:06:24;;;;;;;14.60;4.33;;;6.10;99.90;;;;;;5026248;28;20229;-83
2022/10/11 04:08:50;;;;;;;13.07;3.50;;;6.20;99.90;;;;;;5029637;28;20214;-84
2022/10/11 04:11:17;;;;;;;9.17;3.10;;;6.30;99.90;;;;;;5020810;28;20274;-83
2022/10/11 04:13:45;;;;;;;10.07;3.03;;;6.30;99.90;;;;;;5021732;28;20237;-84
2022/10/11 04:16:12;;;;;;;12.13;3.50;;;6.40;99.90;;;;;;5019353;28;20230;-84
2022/10/11 04:18:39;;;;;;;23.33;3.97;;;6.50;99.90;;;;;;5022719;28;20322;-84
2022/10/11 04:21:06;;;;;;;7.57;2.83;;;6.50;99.90;;;;;;5023284;28;20570;-83
2022/10/11 04:23:34;;;;;;;12.03;4.03;;;6.60;99.90;;;;;;5019501;28;20240;-84
2022/10/11 04:26:04;;;;;;;10.93;3.07;;;6.60;99.90;;;;;;5019359;28;20225;-81
2022/10/11 04:28:31;;;;;;;8.17;2.90;;;6.70;99.90;;;;;;5018578;28;20242;-81
2022/10/11 04:30:59;;;;;;;17.33;3.30;;;6.70;99.90;;;;;;5022553;28;20221;-81
2022/10/11 04:33:26;;;;;;;11.70;2.90;;;6.60;99.90;;;;;;5016768;28;20571;-80
2022/10/11 04:35:53;;;;;;;12.67;3.83;;;6.60;99.90;;;;;;5016660;28;20229;-81
2022/10/11 04:38:20;;;;;;;14.03;3.23;;;6.60;99.90;;;;;;5021223;28;20283;-81
2022/10/11 04:40:47;;;;;;;12.07;3.30;;;6.60;99.90;;;;;;5019126;28;20244;-81
2022/10/11 04:43:15;;;;;;;10.60;2.70;;;6.50;99.90;;;;;;5012445;28;20591;-80
2022/10/11 04:45:42;;;;;;;13.17;2.90;;;6.40;99.90;;;;;;5018860;28;21452;-82
2022/10/11 04:48:10;;;;;;;9.03;2.90;;;6.40;99.90;;;;;;5017891;28;20289;-80
2022/10/11 04:50:37;;;;;;;8.70;2.93;;;6.30;99.90;;;;;;5021792;28;20216;-80
2022/10/11 04:53:07;;;;;;;10.73;3.20;;;6.30;99.90;;;;;;5007507;28;20229;-81
2022/10/11 04:55:34;;;;;;;11.33;2.90;;;6.20;99.90;;;;;;5018706;28;20227;-80
2022/10/11 04:58:01;;;;;;;12.80;2.77;;;6.20;99.90;;;;;;5021389;28;20235;-81
2022/10/11 05:00:27;;;;;;;13.17;3.90;;;6.20;99.90;;;;;;5034495;28;20394;-80
2022/10/11 05:02:54;;;;;;;12.17;2.70;;;6.10;99.90;;;;;;5021137;28;20251;-81
2022/10/11 05:05:22;;;;;;;8.53;2.67;;;6.10;99.90;;;;;;5025694;28;20247;-80
2022/10/11 05:07:48;;;;;;;12.87;2.93;;;6.00;99.90;;;;;;5019037;28;20748;-80
2022/10/11 05:10:15;;;;;;;18.27;3.73;;;6.00;99.90;;;;;;5020603;28;20225;-80
2022/10/11 05:12:42;;;;;;;10.63;3.30;;;5.90;99.90;;;;;;5020114;28;20244;-80
2022/10/11 05:15:12;;;;;;;12.50;3.07;;;5.90;99.90;;;;;;5017677;28;20644;-80
2022/10/11 05:17:38;;;;;;;10.90;3.40;;;5.80;99.90;;;;;;5024290;28;20244;-80
2022/10/11 05:20:06;;;;;;;12.60;2.90;;;5.80;99.90;;;;;;5022857;28;20573;-80
2022/10/11 05:22:34;;;;;;;8.30;2.60;;;5.80;99.90;;;;;;5019295;28;20244;-81
2022/10/11 05:25:01;;;;;;;12.50;3.57;;;5.80;99.90;;;;;;5030412;28;20325;-82
2022/10/11 05:27:28;;;;;;;10.10;2.80;;;5.80;99.90;;;;;;5034968;28;20320;-81
2022/10/11 05:29:54;;;;;;;12.77;3.47;;;5.70;99.90;;;;;;5042733;28;20807;-81
2022/10/11 05:32:21;;;;;;;12.40;3.10;;;5.70;99.90;;;;;;5045502;28;20226;-80
2022/10/11 05:34:48;;;;;;;13.43;3.40;;;5.70;99.90;;;;;;5036013;28;20738;-81
2022/10/11 05:37:14;;;;;;;15.13;3.30;;;5.70;99.90;;;;;;5030526;28;20232;-80
2022/10/11 05:39:42;;;;;;;10.23;2.97;;;5.60;99.90;;;;;;5038688;28;20327;-81
2022/10/11 05:42:09;;;;;;;12.00;3.03;;;5.60;99.90;;;;;;5043560;28;20230;-81
2022/10/11 05:44:36;;;;;;;15.40;3.37;;;5.60;99.90;;;;;;5039553;28;20722;-80
2022/10/11 05:47:03;;;;;;;6.70;2.70;;;5.60;99.90;;;;;;5026052;28;20231;-81
2022/10/11 05:49:30;;;;;;;13.40;2.80;;;5.60;99.90;;;;;;5022619;28;20283;-82
2022/10/11 05:51:56;;;;;;;11.73;3.07;;;5.50;99.90;;;;;;5017254;28;20678;-82
2022/10/11 05:54:23;;;;;;;9.93;3.00;;;5.50;99.90;;;;;;5015322;28;20230;-81
2022/10/11 05:56:51;;;;;;;15.87;3.20;;;5.50;99.90;;;;;;5017809;28;20239;-82
2022/10/11 05:59:18;;;;;;;17.53;3.73;;;5.50;99.90;;;;;;5024450;28;20255;-81
2022/10/11 06:01:47;;;;;;;10.43;3.87;;;5.50;99.90;;;;;;5021404;28;20742;-82
2022/10/11 06:04:29;;;;;;;11.93;3.63;;;5.50;99.90;;;;;;5018089;28;20231;-81
2022/10/11 06:06:57;;;;;;;11.67;3.77;;;5.50;99.90;;;;;;5025542;28;20233;-81
2022/10/11 06:09:24;;;;;;;11.63;3.10;;;5.50;99.90;;;;;;5024572;28;20245;-81
2022/10/11 06:11:52;;;;;;;13.10;3.23;;;5.60;99.90;;;;;;5024137;28;20240;-81
2022/10/11 06:14:20;;;;;;;12.27;3.50;;;5.60;99.90;;;;;;5011366;28;20248;-81
2022/10/11 06:16:47;;;;;;;12.13;4.00;;;5.60;99.90;;;;;;5019954;28;20228;-81
2022/10/11 06:19:16;;;;;;;11.80;3.30;;;5.60;99.90;;;;;;5024473;28;20731;-81
2022/10/11 06:21:47;;;;;;;11.43;3.80;;;5.70;99.90;;;;;;5023788;28;20702;-80
2022/10/11 06:24:14;;;;;;;13.00;3.73;;;5.70;99.90;;;;;;5024555;28;20867;-82
2022/10/11 06:26:40;;;;;;;14.33;3.00;;;5.70;99.90;;;;;;5013275;28;20243;-83
2022/10/11 06:29:09;;;;;;;13.83;3.50;;;5.80;99.90;;;;;;5024818;28;20231;-82
2022/10/11 06:31:36;;;;;;;9.03;3.10;;;5.80;99.90;;;;;;5012573;28;20255;-83
2022/10/11 06:34:06;;;;;;;10.63;3.67;;;5.80;99.90;;;;;;5028485;28;20243;-83
2022/10/11 06:36:36;;;;;;;9.47;3.03;;;5.80;99.90;;;;;;5016000;28;20228;-82
2022/10/11 06:39:04;;;;;;;12.47;3.23;;;5.80;99.90;;;;;;5028317;28;20228;-82
2022/10/11 06:41:37;;;;;;;9.57;3.70;;;5.80;99.90;;;;;;5028585;28;20947;-82
2022/10/11 06:44:04;;;;;;;11.30;3.93;;;5.90;99.90;;;;;;5026111;28;20246;-81
2022/10/11 06:46:33;;;;;;;10.80;3.47;;;5.90;99.90;;;;;;5037244;28;20228;-82
2022/10/11 06:49:02;;;;;;;14.47;4.20;;;5.90;99.90;;;;;;5026432;28;20265;-82
2022/10/11 06:51:31;;;;;;;13.67;3.40;;;5.90;99.90;;;;;;5025594;28;20239;-82
2022/10/11 06:54:04;;;;;;;10.57;3.63;;;5.90;99.90;;;;;;5036984;28;20556;-82
2022/10/11 06:56:31;;;;;;;11.23;3.90;;;6.00;99.90;;;;;;5026106;28;20252;-82
2022/10/11 06:58:59;;;;;;;11.47;3.30;;;6.00;99.90;;;;;;5023082;28;20352;-82
2022/10/11 07:01:26;;;;;;;8.53;3.70;;;6.00;99.90;;;;;;5019188;28;20233;-82
2022/10/11 07:03:57;;;;;;;12.67;3.37;;;6.10;99.90;;;;;;5018145;28;20230;-82
2022/10/11 07:06:25;;;;;;;10.23;3.57;;;6.10;99.90;;;;;;5024883;28;20408;-82
2022/10/11 07:08:53;;;;;;;14.47;3.93;;;6.10;99.90;;;;;;5027840;28;20310;-82
2022/10/11 07:11:21;;;;;;;12.20;3.67;;;6.20;99.90;;;;;;5025399;28;20262;-81
2022/10/11 07:13:49;;;;;;;10.87;4.00;;;6.30;99.90;;;;;;5028723;28;20297;-82
2022/10/11 07:16:18;;;;;;;12.63;4.60;;;6.30;99.90;;;;;;5017584;28;20221;-82
2022/10/11 07:18:46;;;;;;;12.97;4.57;;;6.40;99.90;;;;;;5013708;28;20632;-83
2022/10/11 07:21:16;;;;;;;18.67;4.27;;;6.40;99.90;;;;;;5021467;28;20230;-82
2022/10/11 07:23:43;;;;;;;16.30;4.67;;;6.50;99.90;;;;;;5022648;28;20229;-82
2022/10/11 07:26:10;;;;;;;12.90;4.10;;;6.60;99.90;;;;;;5021779;28;20247;-82
2022/10/11 07:28:38;;;;;;;11.83;5.00;;;6.60;99.90;;;;;;5025441;28;20228;-86
2022/10/11 07:31:11;;;;;;;16.20;4.83;;;6.70;99.90;;;;;;5036367;28;20330;-85
2022/10/11 07:33:38;;;;;;;16.37;4.20;;;6.80;99.90;;;;;;5034989;28;20337;-85
2022/10/11 07:36:06;;;;;;;14.23;5.30;;;6.90;99.90;;;;;;5033641;28;20223;-85
2022/10/11 07:38:37;;;;;;;11.43;4.40;;;7.00;99.90;;;;;;5033042;28;20225;-85
2022/10/11 07:41:07;;;;;;;9.87;4.20;;;7.00;99.90;;;;;;5033557;28;20339;-84
2022/10/11 07:43:35;;;;;;;8.73;4.27;;;7.10;99.90;;;;;;5033231;28;20934;-84
2022/10/11 07:46:05;;;;;;;15.53;4.97;;;7.20;99.90;;;;;;5034262;28;20230;-84
2022/10/11 07:48:33;;;;;;;14.60;3.97;;;7.30;99.90;;;;;;5032023;28;20230;-85
2022/10/11 07:51:04;;;;;;;12.93;4.07;;;7.40;99.90;;;;;;5033059;28;20238;-84
2022/10/11 07:53:31;;;;;;;14.67;4.60;;;7.50;99.90;;;;;;5040632;28;20738;-85
2022/10/11 07:56:01;;;;;;;13.87;3.60;;;7.60;99.90;;;;;;5035309;28;20731;-85
2022/10/11 07:58:28;;;;;;;12.77;3.20;;;7.70;99.90;;;;;;5033046;28;20225;-84
2022/10/11 08:00:55;;;;;;;15.90;3.83;;;7.80;99.90;;;;;;5033649;28;20230;-85
2022/10/11 08:03:22;;;;;;;12.00;3.50;;;7.80;99.90;;;;;;5033350;28;20659;-85
2022/10/11 08:05:50;;;;;;;13.57;3.53;;;7.90;99.90;;;;;;5034229;28;20242;-84
2022/10/11 08:08:17;;;;;;;16.47;3.77;;;8.00;99.90;;;;;;5031720;28;20240;-85
2022/10/11 08:10:44;;;;;;;12.07;3.50;;;8.10;99.90;;;;;;5035870;28;20314;-84
2022/10/11 08:13:13;;;;;;;13.80;3.53;;;8.20;99.90;;;;;;5032882;28;20237;-85
2022/10/11 08:15:40;;;;;;;13.50;3.60;;;8.30;99.90;;;;;;5053264;28;20310;-85
2022/10/11 08:18:06;;;;;;;12.87;3.23;;;8.40;99.90;;;;;;5052348;28;20234;-84
2022/10/11 08:20:33;;;;;;;13.23;3.00;;;8.50;99.90;;;;;;5053760;28;20253;-83
2022/10/11 08:23:00;;;;;;;14.97;3.37;;;8.70;99.90;;;;;;5034435;28;20259;-83
2022/10/11 08:25:29;;;;;;;11.93;2.80;;;8.80;99.90;;;;;;5028886;28;20990;-82
2022/10/11 08:27:55;;;;;;;13.47;3.27;;;9.10;99.90;;;;;;5027396;28;20236;-83
2022/10/11 08:30:23;;;;;;;7.67;2.63;;;9.40;99.90;;;;;;5038070;28;20316;-84
2022/10/11 08:32:52;;;;;;;10.63;2.90;;;9.90;99.90;;;;;;5029746;28;20227;-83
2022/10/11 08:35:19;;;;;;;11.43;3.70;;;10.40;99.90;;;;;;5033990;28;20678;-83
2022/10/11 08:37:46;;;;;;;11.77;3.00;;;11.00;99.90;;;;;;5035095;28;20254;-83
2022/10/11 08:40:17;;;;;;;10.53;2.57;;;11.60;99.90;;;;;;5033861;28;20232;-82
2022/10/11 08:42:48;;;;;;;8.87;2.60;;;12.20;99.90;;;;;;5031316;28;20245;-82
2022/10/11 08:45:27;;;;;;;10.00;3.00;;;12.80;99.90;;;;;;5032734;28;20320;-83
2022/10/11 08:48:04;;;;;;;12.63;2.83;;;13.40;99.90;;;;;;5026209;28;20288;-82
2022/10/11 08:50:31;;;;;;;11.07;3.17;;;14.00;99.90;;;;;;5025420;28;20231;-83
2022/10/11 08:53:02;;;;;;;9.83;3.10;;;14.60;99.90;;;;;;5030925;28;20361;-82
2022/10/11 08:55:38;;;;;;;11.87;2.50;;;15.10;99.90;;;;;;5031757;28;20253;-83
2022/10/11 08:58:04;;;;;;;10.57;2.20;;;15.50;99.90;;;;;;5033537;28;20223;-83
2022/10/11 09:00:37;;;;;;;9.13;2.77;;;16.00;99.90;;;;;;5035005;28;20228;-83
2022/10/11 09:03:10;;;;;;;8.40;2.53;;;16.40;99.90;;;;;;5029752;28;20682;-83
2022/10/11 09:05:53;;;;;;;13.50;2.60;;;16.80;99.90;;;;;;5031486;28;20227;-83
2022/10/11 09:08:26;;;;;;;9.60;2.30;;;17.10;99.90;;;;;;5029208;28;20208;-82
2022/10/11 09:11:04;;;;;;;9.97;3.03;;;17.30;99.90;;;;;;5027490;28;20318;-83
2022/10/11 09:13:50;;;;;;;10.00;2.90;;;17.60;99.90;;;;;;5031246;28;20243;-83
2022/10/11 09:16:28;;;;;;;8.23;2.70;;;17.80;99.90;;;;;;5030595;28;20283;-83
2022/10/11 09:19:30;;;;;;;12.13;3.43;;;18.10;99.90;;;;;;5030449;28;20220;-83
2022/10/11 09:22:06;;;;;;;8.67;2.40;;;18.30;99.90;;;;;;5037057;28;20254;-83
2022/10/11 09:24:58;;;;;;;8.63;2.40;;;18.50;99.90;;;;;;5037697;28;20779;-83
2022/10/11 09:27:35;;;;;;;10.23;2.40;;;18.60;99.90;;;;;;5034012;28;20304;-83
2022/10/11 09:30:05;;;;;;;9.87;2.90;;;18.80;99.90;;;;;;5032394;28;20219;-83
2022/10/11 09:32:37;;;;;;;7.10;2.40;;;19.00;99.90;;;;;;5025891;28;20369;-82
2022/10/11 09:35:12;;;;;;;7.40;2.33;;;19.00;98.80;;;;;;5035904;28;20228;-83
2022/10/11 09:37:45;;;;;;;9.50;2.27;;;19.10;98.70;;;;;;5028474;28;20228;-83
2022/10/11 09:40:34;;;;;;;10.30;2.80;;;19.20;99.10;;;;;;5029485;28;20230;-83
2022/10/11 09:43:01;;;;;;;9.80;2.33;;;19.20;99.00;;;;;;5024283;28;20224;-83
2022/10/11 09:45:28;;;;;;;10.83;3.07;;;19.20;99.50;;;;;;5039103;28;20307;-83
2022/10/11 09:47:59;;;;;;;9.40;2.57;;;19.30;99.60;;;;;;5030897;28;20239;-82
2022/10/11 09:50:29;;;;;;;11.90;2.90;;;19.40;98.70;;;;;;5036211;28;20749;-83
2022/10/11 09:52:58;;;;;;;10.43;2.53;;;19.50;98.90;;;;;;5038343;28;20228;-83
2022/10/11 09:55:34;;;;;;;8.35;2.63;;;19.60;98.40;;;;;;5033504;28;20225;-83
2022/10/11 09:58:01;;;;;;;9.77;2.55;;;19.70;97.20;;;;;;5024458;28;20220;-83
2022/10/11 10:00:32;;;;;;;10.75;2.53;;;19.80;97.40;;;;;;5024949;28;20238;-83
2022/10/11 10:03:02;;;;;;;9.60;2.50;;;19.80;97.10;;;;;;5024091;28;20319;-83
2022/10/11 10:05:30;;;;;;;9.38;2.53;;;19.80;96.60;;;;;;5033212;28;20233;-83
2022/10/11 10:08:03;;;;;;;9.73;2.65;;;19.90;97.00;;;;;;5042743;28;20234;-83
2022/10/11 10:10:37;;;;;;;8.40;2.20;;;20.00;96.20;;;;;;5031934;28;20233;-83
2022/10/11 10:13:06;;;;;;;12.50;2.85;;;20.00;95.80;;;;;;5031777;28;20941;-83
2022/10/11 10:15:35;;;;;;;9.13;2.55;;;20.10;95.40;;;;;;5029444;28;20278;-83
2022/10/11 10:18:09;;;;;;;7.20;2.55;;;20.10;95.40;;;;;;5031830;28;20316;-83
2022/10/11 10:20:36;;;;;;;7.85;2.42;;;20.20;95.20;;;;;;5029833;28;20305;-83
2022/10/11 10:23:09;;;;;;;8.73;2.50;;;20.30;95.40;;;;;;5028067;28;20304;-83
2022/10/11 10:25:38;;;;;;;8.63;2.22;;;20.40;94.80;;;;;;5030310;28;20248;-83
2022/10/11 10:28:18;;;;;;;11.32;2.55;;;20.50;95.00;;;;;;5026955;28;20232;-83
2022/10/11 10:30:53;;;;;;;6.55;2.67;;;20.50;93.00;;;;;;5025420;28;20254;-83
2022/10/11 10:33:22;;;;;;;13.73;2.50;;;20.50;93.70;;;;;;5025099;28;20297;-83
2022/10/11 10:35:53;;;;;;;11.73;2.25;;;20.40;93.50;;;;;;5023617;28;20219;-83
2022/10/11 10:38:26;;;;;;;9.13;2.30;;;20.20;92.90;;;;;;5026867;28;20217;-83
2022/10/11 10:40:56;;;;;;;9.07;2.57;;;19.90;92.40;;;;;;5061014;23;20707;-83
2022/10/11 10:43:26;;;;;;;11.10;2.40;;;19.50;92.90;;;;;;5050141;28;20223;-83
2022/10/11 10:46:19;;;;;;;10.60;2.60;;;19.10;93.20;;;;;;5058004;28;20228;-82
2022/10/11 10:48:54;;;;;;;7.63;2.33;;;18.60;93.40;;;;;;5044901;28;20713;-83
2022/10/11 10:51:30;;;;;;;10.30;2.77;;;18.30;93.70;;;;;;5052511;28;20232;-83
2022/10/11 10:54:06;;;;;;;7.00;1.83;;;17.90;94.40;;;;;;5046428;28;20230;-83
2022/10/11 10:56:42;;;;;;;9.93;2.67;;;17.60;94.90;;;;;;5048752;28;20238;-83
2022/10/11 10:59:27;;;;;;;7.43;2.40;;;17.60;95.40;;;;;;5051168;28;20806;-83
2022/10/11 11:01:59;;;;;;;6.93;2.10;;;17.50;94.80;;;;;;5052450;28;20228;-83
2022/10/11 11:04:31;;;;;;;8.33;2.00;;;17.60;95.20;;;;;;5044713;28;20684;-83
2022/10/11 11:07:03;;;;;;;6.87;2.33;;;17.70;95.40;;;;;;5045590;28;20223;-82
2022/10/11 11:09:41;;;;;;;7.80;2.27;;;17.80;95.40;;;;;;5048660;28;20318;-82
2022/10/11 11:12:23;;;;;;;9.27;2.10;;;17.80;95.40;;;;;;5043735;28;20212;-83
2022/10/11 11:14:59;;;;;;;10.90;2.40;;;17.80;95.10;;;;;;5047150;28;20233;-82
2022/10/11 11:17:39;;;;;;;8.70;2.03;;;17.80;95.40;;;;;;5046706;28;20235;-81
2022/10/11 11:20:30;;;;;;;9.77;2.60;;;17.80;95.40;;;;;;5046964;28;20224;-82
2022/10/11 11:23:03;;;;;;;10.30;2.70;;;17.80;95.20;;;;;;5050660;28;20223;-83
2022/10/11 11:25:37;;;;;;;9.37;2.50;;;17.80;95.70;;;;;;5048412;28;20672;-82
2022/10/11 11:28:32;;;;;;;9.03;2.37;;;17.70;95.30;;;;;;5044866;28;20648;-82
2022/10/11 11:31:06;;;;;;;9.57;1.93;;;17.70;95.40;;;;;;5051001;28;20228;-83
2022/10/11 11:33:42;;;;;;;9.03;2.37;;;17.50;95.00;;;;;;5052015;28;20230;-82
2022/10/11 11:36:13;;;;;;;7.60;2.17;;;17.40;94.80;;;;;;5044124;28;20223;-82
2022/10/11 11:38:45;;;;;;;16.07;4.40;;;17.30;94.90;;;;;;5052013;28;20240;-82
2022/10/11 11:41:17;;;;;;;9.77;2.60;;;17.20;95.00;;;;;;5047354;28;20348;-82
2022/10/11 11:43:55;;;;;;;7.50;2.17;;;17.00;95.10;;;;;;5049369;28;20307;-81
2022/10/11 11:46:26;;;;;;;7.40;1.90;;;16.90;95.20;;;;;;5049039;28;20305;-83
2022/10/11 11:48:57;;;;;;;7.50;2.30;;;16.90;95.80;;;;;;5055581;28;20239;-82
2022/10/11 11:51:30;;;;;;;11.07;2.73;;;16.90;95.90;;;;;;5050639;28;20307;-82
2022/10/11 11:54:07;;;;;;;11.53;2.53;;;17.00;95.40;;;;;;5048200;28;20235;-82
2022/10/11 11:56:47;;;;;;;8.67;2.13;;;17.10;95.60;;;;;;5045753;28;20764;-82
2022/10/11 11:59:20;;;;;;;11.10;2.20;;;17.20;95.50;;;;;;5051679;28;20216;-82
2022/10/11 12:01:55;;;;;;;9.67;2.30;;;17.30;95.20;;;;;;5047357;28;20228;-82
2022/10/11 12:04:27;;;;;;;8.80;2.23;;;17.30;95.20;;;;;;5052565;28;20254;-82
2022/10/11 12:07:05;;;;;;;11.10;2.30;;;17.30;94.90;;;;;;5050757;28;20245;-82
2022/10/11 12:09:33;;;;;;;7.90;2.50;;;17.20;94.20;;;;;;5043043;28;20318;-83
2022/10/11 12:12:03;;;;;;;9.20;2.33;;;17.20;94.50;;;;;;5037278;28;20550;-82
2022/10/11 12:14:37;;;;;;;7.63;2.20;;;17.00;94.30;;;;;;5046802;28;20865;-83
2022/10/11 12:17:13;;;;;;;9.37;1.90;;;16.80;94.30;;;;;;5044261;28;20229;-82
2022/10/11 12:19:42;;;;;;;11.30;2.13;;;16.60;94.40;;;;;;5051353;28;20253;-82
2022/10/11 12:22:38;;;;;;;10.93;2.60;;;16.50;94.80;;;;;;5049354;28;20227;-81
2022/10/11 12:25:32;;;;;;;8.50;2.07;;;16.30;95.20;;;;;;5046144;28;20800;-81
2022/10/11 12:28:01;;;;;;;12.40;2.40;;;16.20;95.20;;;;;;5039881;28;20229;-81
2022/10/11 12:30:52;;;;;;;5.90;2.30;;;16.20;95.60;;;;;;5048576;28;20282;-81
2022/10/11 12:33:21;;;;;;;9.93;2.37;;;16.10;95.70;;;;;;5043472;28;20214;-80
2022/10/11 12:35:57;;;;;;;8.33;1.83;;;16.00;95.50;;;;;;5050005;28;20709;-82
2022/10/11 12:38:27;;;;;;;6.43;1.80;;;16.00;95.30;;;;;;5049224;28;20238;-79
2022/10/11 12:40:56;;;;;;;5.80;1.77;;;15.90;95.40;;;;;;5044245;28;20237;-81
2022/10/11 12:43:30;;;;;;;7.33;2.43;;;15.90;95.60;;;;;;5043980;28;20288;-81
2022/10/11 12:45:57;;;;;;;9.33;2.23;;;15.90;95.60;;;;;;5045524;28;20228;-81
2022/10/11 12:48:50;;;;;;;9.83;2.40;;;15.90;95.40;;;;;;5055470;28;20250;-81
2022/10/11 12:51:30;;;;;;;4.47;1.80;;;15.90;94.90;;;;;;5049319;28;20287;-81
2022/10/11 12:54:26;;;;;;;13.63;2.67;;;15.90;95.00;;;;;;5048713;28;20245;-81
2022/10/11 12:57:11;;;;;;;7.30;2.20;;;15.90;95.00;;;;;;5035592;28;20233;-83
2022/10/11 12:59:42;;;;;;;11.30;2.70;;;15.90;95.50;;;;;;5052182;28;20232;-84
2022/10/11 13:02:23;;;;;;;9.73;2.40;;;15.90;95.60;;;;;;5047036;28;20226;-83
2022/10/11 13:04:50;;;;;;;10.40;2.47;;;15.90;95.30;;;;;;5057925;28;20248;-82
2022/10/11 13:07:22;;;;;;;5.27;1.87;;;15.80;95.50;;;;;;5049945;28;20216;-82
2022/10/11 13:09:54;;;;;;;9.07;2.03;;;15.80;95.60;;;;;;5050194;28;20250;-83